Tawau Airport
WBKW : now visible

Airfield :











YOU CAN JOIN US ON...

 
LOGIN :

Register | Disclaimer

   EN    FR    IT 

 









Legend :    VFR   Marginal VFR   IFR   Intensive IFR   Very Intensive IFR
Visi :
Ceiling :
>= 8 km
>= 3000ft
5 to 8 km
1000 to 3000 ft
1500m to 5 km
500 to 1000 ft
800 to 1500m
200 to 500 ft
< 800m
< 200 ft
Symbols :   Thunderstorms  Fog  Heavy snow  Heavy precipitations  Wind > 20 kt






- Airport Elevation : 57 ft
- IATA code : TWU


WBKW - Tawau

CURRENT METAR :
  • 121900Z VRB02KT 9999 FEW017 BKN140 24/22 Q1010

EXPIRED METARs :
  • 121800Z VRB02KT 9999 FEW017 BKN140 24/23 Q1010
  • 121700Z 00000KT 9999 FEW017 BKN140 25/23 Q1010

TAF TAF WBKW
Valid from the 12 at 18:00 until the 13 at 18:00 UTC


121700Z 1218/1318 35005KT 9999 FEW017
BECMG 1303/1305 17007KT



MET'MAP, your aeronautical weather chart ! - Copyright ORBIFLY December 2007 - Disclaimer

ORBIFLY MET'MAP TEAM :

Programming & Development : Alexandra Zaïnal
Concept & Development : Baudouin d'Aumeries
Co-Development & Prog : Marc-Olivier Méhu
Technical & hardware support : Manuel Goepfert

Contact : metmap@orbifly.com




SOURCES & CREDITS :

   NOAA       Earth
Advisory